Time,TemperatureF,DewpointF,PressureIn,WindDirection,WindDirectionDegrees,WindSpeedMPH,WindSpeedGustMPH,Humidity,HourlyPrecipIn,Conditions,Clouds,dailyrainin,SoftwareType,DateUTC
2013-07-18 00:11:00,77.7,73.0,30.15,SW,224,0.0,-999.0,86,-99.99,,,0.00,weatherlink.com 1.10,2013-07-18 05:11:00,
2013-07-18 00:26:00,77.7,73.0,30.15,SW,224,0.0,-999.0,86,-99.99,,,0.00,weatherlink.com 1.10,2013-07-18 05:26:00,
2013-07-18 00:41:00,77.7,73.0,30.14,SW,224,0.0,-999.0,85,-99.99,,,0.00,weatherlink.com 1.10,2013-07-18 05:41:00,
2013-07-18 00:56:00,77.7,73.0,30.15,SW,224,0.0,-999.0,85,-99.99,,,0.00,weatherlink.com 1.10,2013-07-18 05:56:00,
2013-07-18 01:10:00,77.3,73.0,30.15,SW,224,0.0,-999.0,86,-99.99,,,0.00,weatherlink.com 1.10,2013-07-18 06:10:00,
2013-07-18 01:25:00,77.2,73.0,30.15,SW,224,0.0,-999.0,86,-99.99,,,0.00,weatherlink.com 1.10,2013-07-18 06:25:00,
2013-07-18 01:40:00,76.9,73.0,30.14,SW,224,0.0,-999.0,87,-99.99,,,0.00,weatherlink.com 1.10,2013-07-18 06:40:00,
2013-07-18 01:56:00,76.7,73.0,30.14,SW,224,0.0,-999.0,87,-99.99,,,0.00,weatherlink.com 1.10,2013-07-18 06:56:00,
2013-07-18 02:11:00,76.5,73.0,30.14,SW,224,0.0,-999.0,88,-99.99,,,0.00,weatherlink.com 1.10,2013-07-18 07:11:00,
2013-07-18 02:26:00,76.3,73.0,30.13,SW,224,0.0,-999.0,88,-99.99,,,0.00,weatherlink.com 1.10,2013-07-18 07:26:00,
2013-07-18 02:41:00,76.1,72.0,30.14,SW,224,0.0,-999.0,88,-99.99,,,0.00,weatherlink.com 1.10,2013-07-18 07:41:00,
2013-07-18 02:56:00,76.0,73.0,30.14,SW,224,0.0,-999.0,89,-99.99,,,0.00,weatherlink.com 1.10,2013-07-18 07:56:00,
2013-07-18 03:11:00,75.7,72.0,30.13,SW,224,0.0,-999.0,89,-99.99,,,0.00,weatherlink.com 1.10,2013-07-18 08:11:00,
2013-07-18 03:26:00,75.6,73.0,30.13,SW,224,0.0,-999.0,90,-99.99,,,0.00,weatherlink.com 1.10,2013-07-18 08:26:00,
2013-07-18 03:41:00,75.4,72.0,30.12,SW,224,0.0,-999.0,89,-99.99,,,0.00,weatherlink.com 1.10,2013-07-18 08:41:00,
2013-07-18 03:56:00,75.3,72.0,30.12,SW,224,0.0,-999.0,90,-99.99,,,0.00,weatherlink.com 1.10,2013-07-18 08:56:00,
2013-07-18 04:11:00,75.2,72.0,30.12,SW,224,0.0,-999.0,90,-99.99,,,0.00,weatherlink.com 1.10,2013-07-18 09:11:00,
2013-07-18 04:26:00,74.9,72.0,30.12,SW,224,0.0,-999.0,90,-99.99,,,0.00,weatherlink.com 1.10,2013-07-18 09:26:00,
2013-07-18 04:41:00,74.7,72.0,30.12,SW,224,0.0,-999.0,91,-99.99,,,0.00,weatherlink.com 1.10,2013-07-18 09:41:00,
2013-07-18 04:56:00,74.5,72.0,30.11,SW,224,0.0,-999.0,91,-99.99,,,0.00,weatherlink.com 1.10,2013-07-18 09:56:00,
2013-07-18 05:12:00,74.4,72.0,30.12,SW,224,0.0,-999.0,91,-99.99,,,0.00,weatherlink.com 1.10,2013-07-18 10:12:00,
2013-07-18 05:27:00,74.3,72.0,30.11,SW,224,0.0,-999.0,91,-99.99,,,0.00,weatherlink.com 1.10,2013-07-18 10:27:00,
2013-07-18 05:42:00,74.1,71.0,30.11,SW,224,0.0,-999.0,91,-99.99,,,0.00,weatherlink.com 1.10,2013-07-18 10:42:00,
2013-07-18 05:57:00,74.0,72.0,30.12,SW,224,0.0,-999.0,92,-99.99,,,0.00,weatherlink.com 1.10,2013-07-18 10:57:00,
2013-07-18 06:11:00,73.9,72.0,30.12,SW,224,0.0,-999.0,92,-99.99,,,0.00,weatherlink.com 1.10,2013-07-18 11:11:00,
2013-07-18 06:26:00,74.1,72.0,30.12,SW,224,0.0,-999.0,92,-99.99,,,0.00,weatherlink.com 1.10,2013-07-18 11:26:00,
2013-07-18 06:41:00,74.5,72.0,30.12,SW,224,0.0,-999.0,92,-99.99,,,0.00,weatherlink.com 1.10,2013-07-18 11:41:00,
2013-07-18 06:57:00,75.0,73.0,30.12,SW,224,0.0,-999.0,92,-99.99,,,0.00,weatherlink.com 1.10,2013-07-18 11:57:00,
2013-07-18 07:12:00,75.9,73.0,30.12,SW,224,0.0,-999.0,91,-99.99,,,0.00,weatherlink.com 1.10,2013-07-18 12:12:00,
2013-07-18 07:27:00,76.7,74.0,30.11,SW,224,0.0,-999.0,90,-99.99,,,0.00,weatherlink.com 1.10,2013-07-18 12:27:00,
2013-07-18 07:42:00,78.0,75.0,30.12,SW,224,0.0,-999.0,89,-99.99,,,0.00,weatherlink.com 1.10,2013-07-18 12:42:00,
2013-07-18 07:57:00,79.3,75.0,30.12,SW,224,0.0,-999.0,87,-99.99,,,0.00,weatherlink.com 1.10,2013-07-18 12:57:00,
2013-07-18 08:12:00,80.6,76.0,30.12,SW,224,0.0,-999.0,85,-99.99,,,0.00,weatherlink.com 1.10,2013-07-18 13:12:00,
2013-07-18 08:27:00,81.9,76.0,30.11,SW,224,0.0,-999.0,83,-99.99,,,0.00,weatherlink.com 1.10,2013-07-18 13:27:00,
2013-07-18 08:42:00,83.4,77.0,30.12,SW,224,0.0,-999.0,80,-99.99,,,0.00,weatherlink.com 1.10,2013-07-18 13:42:00,
2013-07-18 08:57:00,84.7,76.0,30.12,WSW,249,0.0,-999.0,75,-99.99,,,0.00,weatherlink.com 1.10,2013-07-18 13:57:00,
2013-07-18 09:12:00,85.2,77.0,30.12,SW,236,0.0,-999.0,75,-99.99,,,0.00,weatherlink.com 1.10,2013-07-18 14:12:00,
2013-07-18 09:27:00,86.1,77.0,30.11,WSW,238,0.0,-999.0,73,-99.99,,,0.00,weatherlink.com 1.10,2013-07-18 14:27:00,
2013-07-18 09:42:00,86.5,76.0,30.11,SW,235,0.0,-999.0,71,-99.99,,,0.00,weatherlink.com 1.10,2013-07-18 14:42:00,
2013-07-18 09:57:00,86.6,76.0,30.11,SW,233,0.0,-999.0,71,-99.99,,,0.00,weatherlink.com 1.10,2013-07-18 14:57:00,
2013-07-18 10:12:00,86.8,77.0,30.11,SSW,193,0.0,-999.0,72,-99.99,,,0.00,weatherlink.com 1.10,2013-07-18 15:12:00,
2013-07-18 10:27:00,87.5,77.0,30.11,SSW,199,0.0,-999.0,70,-99.99,,,0.00,weatherlink.com 1.10,2013-07-18 15:27:00,
2013-07-18 10:42:00,87.5,77.0,30.10,South,184,0.0,-999.0,70,-99.99,,,0.00,weatherlink.com 1.10,2013-07-18 15:42:00,
2013-07-18 10:57:00,87.1,76.0,30.10,SW,227,0.0,-999.0,69,-99.99,,,0.00,weatherlink.com 1.10,2013-07-18 15:57:00,
2013-07-18 11:13:00,88.0,76.0,30.09,SW,228,5.0,-999.0,68,-99.99,,,0.00,weatherlink.com 1.10,2013-07-18 16:13:00,
2013-07-18 11:28:00,88.7,75.0,30.09,SSW,201,0.0,-999.0,65,-99.99,,,0.00,weatherlink.com 1.10,2013-07-18 16:28:00,
2013-07-18 11:43:00,88.5,75.0,30.09,SW,224,0.0,-999.0,65,-99.99,,,0.00,weatherlink.com 1.10,2013-07-18 16:43:00,
2013-07-18 11:58:00,89.6,75.0,30.09,SSE,165,5.0,-999.0,62,-99.99,,,0.00,weatherlink.com 1.10,2013-07-18 16:58:00,
2013-07-18 12:13:00,90.0,77.0,30.09,South,190,3.0,-999.0,65,-99.99,,,0.00,weatherlink.com 1.10,2013-07-18 17:13:00,
2013-07-18 12:28:00,89.6,75.0,30.08,SSW,209,10.0,-999.0,63,-99.99,,,0.00,weatherlink.com 1.10,2013-07-18 17:28:00,
2013-07-18 12:43:00,90.3,76.0,30.08,WSW,248,0.0,-999.0,63,-99.99,,,0.00,weatherlink.com 1.10,2013-07-18 17:43:00,
2013-07-18 12:58:00,90.1,75.0,30.07,WSW,242,5.0,-999.0,62,-99.99,,,0.00,weatherlink.com 1.10,2013-07-18 17:58:00,
2013-07-18 13:13:00,90.7,75.0,30.07,West,262,0.0,-999.0,61,-99.99,,,0.00,weatherlink.com 1.10,2013-07-18 18:13:00,
2013-07-18 13:28:00,90.4,76.0,30.06,SSW,202,0.0,-999.0,62,-99.99,,,0.00,weatherlink.com 1.10,2013-07-18 18:28:00,
2013-07-18 13:43:00,90.1,75.0,30.05,SW,234,0.0,-999.0,62,-99.99,,,0.00,weatherlink.com 1.10,2013-07-18 18:43:00,
2013-07-18 13:58:00,91.0,76.0,30.05,WSW,247,0.0,-999.0,61,-99.99,,,0.00,weatherlink.com 1.10,2013-07-18 18:58:00,
2013-07-18 14:13:00,91.2,76.0,30.04,WSW,249,0.0,-999.0,61,-99.99,,,0.00,weatherlink.com 1.10,2013-07-18 19:13:00,
2013-07-18 14:28:00,91.6,75.0,30.04,SW,230,7.0,-999.0,59,-99.99,,,0.00,weatherlink.com 1.10,2013-07-18 19:28:00,
2013-07-18 14:43:00,91.0,75.0,30.03,West,274,0.0,-999.0,59,-99.99,,,0.00,weatherlink.com 1.10,2013-07-18 19:43:00,
2013-07-18 14:58:00,91.7,75.0,30.02,SW,227,8.0,-999.0,58,-99.99,,,0.00,weatherlink.com 1.10,2013-07-18 19:58:00,
2013-07-18 15:13:00,91.6,76.0,30.02,WSW,241,0.0,-999.0,60,-99.99,,,0.00,weatherlink.com 1.10,2013-07-18 20:13:00,
2013-07-18 15:28:00,91.2,76.0,30.01,South,170,0.0,-999.0,61,-99.99,,,0.00,weatherlink.com 1.10,2013-07-18 20:28:00,
2013-07-18 15:43:00,91.0,75.0,30.01,SW,215,13.0,-999.0,60,-99.99,,,0.00,weatherlink.com 1.10,2013-07-18 20:43:00,
2013-07-18 15:58:00,91.4,75.0,30.00,WSW,241,2.0,-999.0,58,-99.99,,,0.00,weatherlink.com 1.10,2013-07-18 20:58:00,
2013-07-18 16:13:00,91.4,74.0,30.00,SW,214,7.0,-999.0,56,-99.99,,,0.00,weatherlink.com 1.10,2013-07-18 21:13:00,
2013-07-18 16:29:00,92.3,74.0,29.99,West,266,0.0,-999.0,56,-99.99,,,0.00,weatherlink.com 1.10,2013-07-18 21:29:00,
2013-07-18 16:44:00,91.5,75.0,29.99,SW,235,0.0,-999.0,59,-99.99,,,0.00,weatherlink.com 1.10,2013-07-18 21:44:00,
2013-07-18 16:59:00,90.1,75.0,29.99,SW,214,10.0,-999.0,62,-99.99,,,0.00,weatherlink.com 1.10,2013-07-18 21:59:00,
2013-07-18 17:13:00,89.3,76.0,29.98,SW,225,2.0,-999.0,64,-99.99,,,0.00,weatherlink.com 1.10,2013-07-18 22:13:00,
2013-07-18 17:28:00,89.1,76.0,29.98,SW,215,0.0,-999.0,65,-99.99,,,0.00,weatherlink.com 1.10,2013-07-18 22:28:00,
2013-07-18 17:43:00,89.4,77.0,29.97,SW,225,0.0,-999.0,66,-99.99,,,0.00,weatherlink.com 1.10,2013-07-18 22:43:00,
2013-07-18 17:58:00,89.5,76.0,29.97,South,186,3.0,-999.0,64,-99.99,,,0.00,weatherlink.com 1.10,2013-07-18 22:58:00,
2013-07-18 18:14:00,89.3,77.0,29.96,SSW,213,5.0,-999.0,66,-99.99,,,0.00,weatherlink.com 1.10,2013-07-18 23:14:00,
2013-07-18 18:29:00,89.2,76.0,29.96,WSW,254,0.0,-999.0,66,-99.99,,,0.00,weatherlink.com 1.10,2013-07-18 23:29:00,
2013-07-18 18:44:00,89.0,77.0,29.96,SSW,193,0.0,-999.0,68,-99.99,,,0.00,weatherlink.com 1.10,2013-07-18 23:44:00,
2013-07-18 18:59:00,88.7,76.0,29.96,SW,233,2.0,-999.0,67,-99.99,,,0.00,weatherlink.com 1.10,2013-07-18 23:59:00,
2013-07-18 19:14:00,88.3,76.0,29.96,SSW,202,0.0,-999.0,68,-99.99,,,0.00,weatherlink.com 1.10,2013-07-19 00:14:00,
2013-07-18 19:29:00,87.9,77.0,29.96,SSW,202,0.0,-999.0,70,-99.99,,,0.00,weatherlink.com 1.10,2013-07-19 00:29:00,
2013-07-18 19:44:00,87.2,77.0,29.96,SSW,202,0.0,-999.0,72,-99.99,,,0.00,weatherlink.com 1.10,2013-07-19 00:44:00,
2013-07-18 19:59:00,86.5,77.0,29.95,SSW,202,0.0,-999.0,73,-99.99,,,0.00,weatherlink.com 1.10,2013-07-19 00:59:00,
2013-07-18 20:14:00,85.4,77.0,29.96,SSW,202,0.0,-999.0,76,-99.99,,,0.00,weatherlink.com 1.10,2013-07-19 01:14:00,
2013-07-18 20:29:00,84.7,77.0,29.95,SSW,202,0.0,-999.0,77,-99.99,,,0.00,weatherlink.com 1.10,2013-07-19 01:29:00,
2013-07-18 20:44:00,84.0,77.0,29.95,SSW,202,0.0,-999.0,78,-99.99,,,0.00,weatherlink.com 1.10,2013-07-19 01:44:00,
2013-07-18 20:59:00,83.4,76.0,29.95,SSW,202,0.0,-999.0,79,-99.99,,,0.00,weatherlink.com 1.10,2013-07-19 01:59:00,
2013-07-18 21:14:00,83.0,76.0,29.95,SSW,202,0.0,-999.0,80,-99.99,,,0.00,weatherlink.com 1.10,2013-07-19 02:14:00,
2013-07-18 21:29:00,82.4,76.0,29.96,SSW,202,0.0,-999.0,82,-99.99,,,0.00,weatherlink.com 1.10,2013-07-19 02:29:00,
2013-07-18 21:44:00,81.8,76.0,29.97,SSW,192,0.0,-999.0,83,-99.99,,,0.00,weatherlink.com 1.10,2013-07-19 02:44:00,
2013-07-18 21:59:00,81.2,76.0,29.96,SSW,193,0.0,-999.0,84,-99.99,,,0.00,weatherlink.com 1.10,2013-07-19 02:59:00,
2013-07-18 22:14:00,80.9,76.0,29.96,SSW,192,0.0,-999.0,85,-99.99,,,0.00,weatherlink.com 1.10,2013-07-19 03:14:00,
2013-07-18 22:29:00,80.6,76.0,29.96,SSW,192,0.0,-999.0,85,-99.99,,,0.00,weatherlink.com 1.10,2013-07-19 03:29:00,
2013-07-18 22:44:00,80.4,76.0,29.96,SSW,192,0.0,-999.0,86,-99.99,,,0.00,weatherlink.com 1.10,2013-07-19 03:44:00,
2013-07-18 22:59:00,80.4,76.0,29.96,SSW,192,0.0,-999.0,85,-99.99,,,0.00,weatherlink.com 1.10,2013-07-19 03:59:00,
2013-07-18 23:14:00,80.0,76.0,29.96,SSW,192,0.0,-999.0,86,-99.99,,,0.00,weatherlink.com 1.10,2013-07-19 04:14:00,
2013-07-18 23:29:00,79.6,76.0,29.96,SSW,192,0.0,-999.0,87,-99.99,,,0.00,weatherlink.com 1.10,2013-07-19 04:29:00,
2013-07-18 23:44:00,79.2,75.0,29.96,SSW,192,0.0,-999.0,87,-99.99,,,0.00,weatherlink.com 1.10,2013-07-19 04:44:00,
2013-07-18 23:59:00,78.7,75.0,29.95,SSW,192,0.0,-999.0,88,-99.99,,,0.00,weatherlink.com 1.10,2013-07-19 04:59:00,